Главная страница
METAR-TAF:

METAR-TAF

Аэропорты :

Rørvik, Норвегия

широта: 64-50N, долгота: 011-09E, высота над уровнем моря: 4 м

Текущие метеонаблюдения

Эта сводка был подготовлена 3 часа и 12 минут назад, в 19:50 UTC
Ветер 13 Узел от восточно-юго-восточный, изменяющийся между восточный и юго-юго-восточный
Температура 17°C
Влажность 32%
Давление 1016 hPa
Видимость 10 км и более
Нет облачности ниже 1500 м, и нет кучево-дождевой облачности

METAR: ENRM 251950Z 12013KT 080V150 CAVOK 17/M00 Q1016

Время: 01:02 (23:02 UTC)

Прогноз

Эта сводка был подготовлена 9 часа и 2 минут назад, в 14:00 UTC
Прогноз действительный с 25-го 15 UTC до 25-го 20 UTC
Ветер 15 Узел от юго-восточный с порывами до 25 Узел
Видимость 10 км и более
Нет облачности ниже 1500 м, и нет кучево-дождевой облачности
изменения
С 25-го 16 UTC до 25-го 19 UTC
Ветер 12 Узел от юго-восточный

TAF: ENRM 251400Z 2515/2520 14015G25KT CAVOK BECMG 2516/2519 14012KT

Метеонаблюдения и прогнозы для более 4000 аэропортов (сводки METAR и TAF).

Имеющиеся станции представлены на карте желтыми и красными точками.

Чтобы увидеть название станции, наведите на нее мышь.

Затем щелкните, чтобы увидеть метеонаблюдения и метеопрогнозы.

Управление картой: чтобы увеличить масштаб, щелкните зеленые кнопки с черным крестиком; чтобы уменьшить масштаб, щелкните зеленую кнопку с тире; для просмотра соседних карт щелкайте зеленые стрелки.


METAR-TAF: